CheckWX is a tool to help pilots better visualize weather data.  It is not intended as a substitute for an official pre-flight weather briefing.

19:55:35 UTC

VTPP METAR
Phitsanulok Airport
Thailand
Current

6 hours ago

VTPP 221400Z 00000KT 7000 NSC 24/20 Q1013 NOSIG
Observed
Nov-22 @ 14:00 UTC
Visibility
7,000 meters
Flight Rules
MVFR
Cloud Levels
  • Clear skies
Temperature
24°C / 75°F
Dewpoint
20°C / 68°F
Humidity
78%
Altimeter
29.91" Hg
Pressure
1012.92 hPa
Previous

7 hours ago

VTPP 221300Z 00000KT 8000 NSC 24/20 Q1013 NOSIG
Observed
Nov-22 @ 13:00 UTC
Visibility
8,000 meters
Flight Rules
MVFR
Cloud Levels
  • Clear skies
Temperature
24°C / 75°F
Dewpoint
20°C / 68°F
Humidity
78%
Altimeter
29.91" Hg
Pressure
1012.92 hPa
Previous

8 hours ago

VTPP 221200Z 00000KT CAVOK 26/19 Q1012 NOSIG
Observed
Nov-22 @ 12:00 UTC
Visibility
10,000+ meters
Flight Rules
VFR
Cloud Levels
  • Clear skies
Temperature
26°C / 79°F
Dewpoint
19°C / 66°F
Humidity
65%
Altimeter
29.88" Hg
Pressure
1011.92 hPa